sensor_id;sensor_type;location;lat;lon;timestamp;temperature;humidity
22108;DHT22;11220;48.812;9.128;2023-03-19T00:02:12;18.10;70.40
22108;DHT22;11220;48.812;9.128;2023-03-19T00:04:38;18.10;70.40
22108;DHT22;11220;48.812;9.128;2023-03-19T00:07:03;18.10;70.40
22108;DHT22;11220;48.812;9.128;2023-03-19T00:09:29;18.10;70.40
22108;DHT22;11220;48.812;9.128;2023-03-19T00:11:54;18.10;70.40
22108;DHT22;11220;48.812;9.128;2023-03-19T00:14:21;18.10;70.40
22108;DHT22;11220;48.812;9.128;2023-03-19T00:16:46;18.10;70.40
22108;DHT22;11220;48.812;9.128;2023-03-19T00:19:12;18.50;70.70
22108;DHT22;11220;48.812;9.128;2023-03-19T00:21:37;18.00;70.40
22108;DHT22;11220;48.812;9.128;2023-03-19T00:24:03;18.10;70.50
22108;DHT22;11220;48.812;9.128;2023-03-19T00:26:33;18.00;70.40
22108;DHT22;11220;48.812;9.128;2023-03-19T00:29:00;18.00;70.40
22108;DHT22;11220;48.812;9.128;2023-03-19T00:31:26;18.00;70.40
22108;DHT22;11220;48.812;9.128;2023-03-19T00:33:52;18.00;71.40
22108;DHT22;11220;48.812;9.128;2023-03-19T00:36:19;18.00;70.50
22108;DHT22;11220;48.812;9.128;2023-03-19T00:38:45;18.00;70.40
22108;DHT22;11220;48.812;9.128;2023-03-19T00:41:11;18.00;70.40
22108;DHT22;11220;48.812;9.128;2023-03-19T00:43:38;18.00;70.50
22108;DHT22;11220;48.812;9.128;2023-03-19T00:46:04;18.00;70.50
22108;DHT22;11220;48.812;9.128;2023-03-19T00:48:30;18.00;70.50
22108;DHT22;11220;48.812;9.128;2023-03-19T00:51:04;17.90;70.40
22108;DHT22;11220;48.812;9.128;2023-03-19T00:53:30;17.90;70.40
22108;DHT22;11220;48.812;9.128;2023-03-19T00:55:56;18.00;70.50
22108;DHT22;11220;48.812;9.128;2023-03-19T00:58:21;18.00;70.50
22108;DHT22;11220;48.812;9.128;2023-03-19T01:00:47;17.90;70.40
22108;DHT22;11220;48.812;9.128;2023-03-19T01:03:13;17.90;70.40
22108;DHT22;11220;48.812;9.128;2023-03-19T01:05:38;17.90;70.50
22108;DHT22;11220;48.812;9.128;2023-03-19T01:08:04;17.90;70.40
22108;DHT22;11220;48.812;9.128;2023-03-19T01:10:32;17.90;70.50
22108;DHT22;11220;48.812;9.128;2023-03-19T01:12:58;17.90;70.50
22108;DHT22;11220;48.812;9.128;2023-03-19T01:15:24;17.90;70.50
22108;DHT22;11220;48.812;9.128;2023-03-19T01:17:49;17.90;70.50
22108;DHT22;11220;48.812;9.128;2023-03-19T01:20:15;17.90;70.50
22108;DHT22;11220;48.812;9.128;2023-03-19T01:22:43;17.90;70.50
22108;DHT22;11220;48.812;9.128;2023-03-19T01:25:11;17.90;70.50
22108;DHT22;11220;48.812;9.128;2023-03-19T01:27:38;17.90;70.50
22108;DHT22;11220;48.812;9.128;2023-03-19T01:30:04;17.90;70.50
22108;DHT22;11220;48.812;9.128;2023-03-19T01:32:30;17.90;70.60
22108;DHT22;11220;48.812;9.128;2023-03-19T01:34:55;17.90;70.60
22108;DHT22;11220;48.812;9.128;2023-03-19T01:37:21;17.90;70.60
22108;DHT22;11220;48.812;9.128;2023-03-19T01:39:47;17.90;71.60
22108;DHT22;11220;48.812;9.128;2023-03-19T01:42:13;17.90;70.70
22108;DHT22;11220;48.812;9.128;2023-03-19T01:44:39;17.90;70.60
22108;DHT22;11220;48.812;9.128;2023-03-19T01:47:33;17.90;70.60
22108;DHT22;11220;48.812;9.128;2023-03-19T01:50:00;17.90;70.60
22108;DHT22;11220;48.812;9.128;2023-03-19T01:52:28;17.80;70.50
22108;DHT22;11220;48.812;9.128;2023-03-19T01:54:55;17.80;70.50
22108;DHT22;11220;48.812;9.128;2023-03-19T01:57:21;17.80;70.50
22108;DHT22;11220;48.812;9.128;2023-03-19T01:59:51;17.80;70.60
22108;DHT22;11220;48.812;9.128;2023-03-19T02:04:50;17.80;70.60
22108;DHT22;11220;48.812;9.128;2023-03-19T02:07:17;17.80;70.50
22108;DHT22;11220;48.812;9.128;2023-03-19T02:09:43;17.80;70.50
22108;DHT22;11220;48.812;9.128;2023-03-19T02:12:09;17.80;70.60
22108;DHT22;11220;48.812;9.128;2023-03-19T02:14:35;17.90;70.60
22108;DHT22;11220;48.812;9.128;2023-03-19T02:17:01;17.90;70.60
22108;DHT22;11220;48.812;9.128;2023-03-19T02:19:27;17.80;70.60
22108;DHT22;11220;48.812;9.128;2023-03-19T02:21:55;17.80;70.60
22108;DHT22;11220;48.812;9.128;2023-03-19T02:24:27;17.80;70.60
22108;DHT22;11220;48.812;9.128;2023-03-19T02:26:56;17.80;70.60
22108;DHT22;11220;48.812;9.128;2023-03-19T02:29:22;17.80;70.60
22108;DHT22;11220;48.812;9.128;2023-03-19T02:31:47;17.80;70.60
22108;DHT22;11220;48.812;9.128;2023-03-19T02:36:43;17.80;70.70
22108;DHT22;11220;48.812;9.128;2023-03-19T02:39:17;17.80;70.70
22108;DHT22;11220;48.812;9.128;2023-03-19T02:41:45;17.80;70.80
22108;DHT22;11220;48.812;9.128;2023-03-19T02:44:11;17.80;70.80
22108;DHT22;11220;48.812;9.128;2023-03-19T02:46:36;17.80;70.90
22108;DHT22;11220;48.812;9.128;2023-03-19T02:49:02;17.80;70.90
22108;DHT22;11220;48.812;9.128;2023-03-19T02:51:28;17.80;70.90
22108;DHT22;11220;48.812;9.128;2023-03-19T02:53:54;17.80;71.00
22108;DHT22;11220;48.812;9.128;2023-03-19T02:56:19;17.80;71.00
22108;DHT22;11220;48.812;9.128;2023-03-19T02:58:45;17.90;71.10
22108;DHT22;11220;48.812;9.128;2023-03-19T03:01:10;17.70;71.00
22108;DHT22;11220;48.812;9.128;2023-03-19T03:03:36;17.70;71.00
22108;DHT22;11220;48.812;9.128;2023-03-19T03:06:01;17.70;71.00
22108;DHT22;11220;48.812;9.128;2023-03-19T03:08:27;17.80;71.10
22108;DHT22;11220;48.812;9.128;2023-03-19T03:10:52;17.70;71.00
22108;DHT22;11220;48.812;9.128;2023-03-19T03:13:18;17.70;71.00
22108;DHT22;11220;48.812;9.128;2023-03-19T03:15:43;17.80;71.10
22108;DHT22;11220;48.812;9.128;2023-03-19T03:18:09;17.70;71.10
22108;DHT22;11220;48.812;9.128;2023-03-19T03:20:35;17.70;71.10
22108;DHT22;11220;48.812;9.128;2023-03-19T03:23:00;17.70;71.10
22108;DHT22;11220;48.812;9.128;2023-03-19T03:25:26;17.70;71.20
22108;DHT22;11220;48.812;9.128;2023-03-19T03:27:52;17.70;71.20
22108;DHT22;11220;48.812;9.128;2023-03-19T03:30:18;17.70;71.20
22108;DHT22;11220;48.812;9.128;2023-03-19T03:32:43;17.70;71.20
22108;DHT22;11220;48.812;9.128;2023-03-19T03:35:09;17.70;71.30
22108;DHT22;11220;48.812;9.128;2023-03-19T03:37:35;17.80;71.40
22108;DHT22;11220;48.812;9.128;2023-03-19T03:40:01;17.70;71.40
22108;DHT22;11220;48.812;9.128;2023-03-19T03:42:31;17.70;71.40
22108;DHT22;11220;48.812;9.128;2023-03-19T03:44:57;17.70;71.40
22108;DHT22;11220;48.812;9.128;2023-03-19T03:47:22;17.70;71.50
22108;DHT22;11220;48.812;9.128;2023-03-19T03:49:48;17.70;71.40
22108;DHT22;11220;48.812;9.128;2023-03-19T03:52:13;17.70;71.50
22108;DHT22;11220;48.812;9.128;2023-03-19T03:54:39;17.70;71.50
22108;DHT22;11220;48.812;9.128;2023-03-19T03:57:05;17.70;71.50
22108;DHT22;11220;48.812;9.128;2023-03-19T03:59:30;17.70;71.50
22108;DHT22;11220;48.812;9.128;2023-03-19T04:01:56;17.70;71.50
22108;DHT22;11220;48.812;9.128;2023-03-19T04:04:21;17.70;71.60
22108;DHT22;11220;48.812;9.128;2023-03-19T04:06:47;17.70;71.60
22108;DHT22;11220;48.812;9.128;2023-03-19T04:09:12;17.70;71.60
22108;DHT22;11220;48.812;9.128;2023-03-19T04:11:40;17.70;71.60
22108;DHT22;11220;48.812;9.128;2023-03-19T04:14:05;17.70;71.60
22108;DHT22;11220;48.812;9.128;2023-03-19T04:16:33;17.70;71.60
22108;DHT22;11220;48.812;9.128;2023-03-19T04:18:58;17.70;71.60
22108;DHT22;11220;48.812;9.128;2023-03-19T04:21:24;17.70;71.60
22108;DHT22;11220;48.812;9.128;2023-03-19T04:23:50;17.70;71.60
22108;DHT22;11220;48.812;9.128;2023-03-19T04:26:16;17.70;71.70
22108;DHT22;11220;48.812;9.128;2023-03-19T04:28:42;17.70;71.70
22108;DHT22;11220;48.812;9.128;2023-03-19T04:31:08;17.70;71.70
22108;DHT22;11220;48.812;9.128;2023-03-19T04:33:35;17.70;71.70
22108;DHT22;11220;48.812;9.128;2023-03-19T04:36:02;18.10;71.90
22108;DHT22;11220;48.812;9.128;2023-03-19T04:38:28;17.70;71.70
22108;DHT22;11220;48.812;9.128;2023-03-19T04:40:54;17.70;71.70
22108;DHT22;11220;48.812;9.128;2023-03-19T04:43:21;17.70;71.70
22108;DHT22;11220;48.812;9.128;2023-03-19T04:45:47;17.70;71.70
22108;DHT22;11220;48.812;9.128;2023-03-19T04:48:12;17.60;71.70
22108;DHT22;11220;48.812;9.128;2023-03-19T04:50:38;17.70;71.80
22108;DHT22;11220;48.812;9.128;2023-03-19T04:53:05;17.70;71.80
22108;DHT22;11220;48.812;9.128;2023-03-19T04:55:31;17.60;71.80
22108;DHT22;11220;48.812;9.128;2023-03-19T04:57:56;17.60;71.80
22108;DHT22;11220;48.812;9.128;2023-03-19T05:00:22;17.70;71.90
22108;DHT22;11220;48.812;9.128;2023-03-19T05:02:48;17.60;71.80
22108;DHT22;11220;48.812;9.128;2023-03-19T05:05:14;17.60;71.80
22108;DHT22;11220;48.812;9.128;2023-03-19T05:07:39;17.60;71.80
22108;DHT22;11220;48.812;9.128;2023-03-19T05:10:06;17.60;71.80
22108;DHT22;11220;48.812;9.128;2023-03-19T05:12:33;17.60;71.80
22108;DHT22;11220;48.812;9.128;2023-03-19T05:14:58;17.60;71.80
22108;DHT22;11220;48.812;9.128;2023-03-19T05:17:24;17.60;71.80
22108;DHT22;11220;48.812;9.128;2023-03-19T05:19:50;18.30;72.30
22108;DHT22;11220;48.812;9.128;2023-03-19T05:22:17;17.60;71.90
22108;DHT22;11220;48.812;9.128;2023-03-19T05:24:44;17.60;71.90
22108;DHT22;11220;48.812;9.128;2023-03-19T05:27:09;17.60;71.90
22108;DHT22;11220;48.812;9.128;2023-03-19T05:29:35;17.60;72.80
22108;DHT22;11220;48.812;9.128;2023-03-19T05:32:01;17.60;71.90
22108;DHT22;11220;48.812;9.128;2023-03-19T05:34:28;17.60;71.90
22108;DHT22;11220;48.812;9.128;2023-03-19T05:36:53;17.60;72.00
22108;DHT22;11220;48.812;9.128;2023-03-19T05:39:19;17.60;72.00
22108;DHT22;11220;48.812;9.128;2023-03-19T05:41:45;17.60;72.00
22108;DHT22;11220;48.812;9.128;2023-03-19T05:44:11;17.60;72.00
22108;DHT22;11220;48.812;9.128;2023-03-19T05:46:37;17.60;72.00
22108;DHT22;11220;48.812;9.128;2023-03-19T05:49:03;17.60;72.00
22108;DHT22;11220;48.812;9.128;2023-03-19T05:51:29;17.60;72.00
22108;DHT22;11220;48.812;9.128;2023-03-19T05:53:54;17.60;72.00
22108;DHT22;11220;48.812;9.128;2023-03-19T05:56:20;17.60;72.00
22108;DHT22;11220;48.812;9.128;2023-03-19T05:58:45;17.60;72.00
22108;DHT22;11220;48.812;9.128;2023-03-19T06:01:11;17.60;72.00
22108;DHT22;11220;48.812;9.128;2023-03-19T06:03:37;17.80;72.10
22108;DHT22;11220;48.812;9.128;2023-03-19T06:06:02;17.60;72.10
22108;DHT22;11220;48.812;9.128;2023-03-19T06:08:28;17.60;72.00
22108;DHT22;11220;48.812;9.128;2023-03-19T06:10:54;17.60;72.10
22108;DHT22;11220;48.812;9.128;2023-03-19T06:13:20;17.70;72.10
22108;DHT22;11220;48.812;9.128;2023-03-19T06:15:47;17.70;72.20
22108;DHT22;11220;48.812;9.128;2023-03-19T06:18:13;17.70;72.20
22108;DHT22;11220;48.812;9.128;2023-03-19T06:20:39;18.00;72.40
22108;DHT22;11220;48.812;9.128;2023-03-19T06:23:05;18.00;72.40
22108;DHT22;11220;48.812;9.128;2023-03-19T06:25:30;17.80;72.30
22108;DHT22;11220;48.812;9.128;2023-03-19T06:27:56;18.10;72.50
22108;DHT22;11220;48.812;9.128;2023-03-19T06:30:21;17.80;72.30
22108;DHT22;11220;48.812;9.128;2023-03-19T06:32:47;17.80;72.30
22108;DHT22;11220;48.812;9.128;2023-03-19T06:35:12;17.80;73.20
22108;DHT22;11220;48.812;9.128;2023-03-19T06:37:38;17.80;72.20
22108;DHT22;11220;48.812;9.128;2023-03-19T06:40:04;18.50;72.60
22108;DHT22;11220;48.812;9.128;2023-03-19T06:42:30;17.90;72.30
22108;DHT22;11220;48.812;9.128;2023-03-19T06:44:56;18.40;72.50
22108;DHT22;11220;48.812;9.128;2023-03-19T06:47:21;17.90;72.20
22108;DHT22;11220;48.812;9.128;2023-03-19T06:49:47;18.30;72.40
22108;DHT22;11220;48.812;9.128;2023-03-19T06:52:13;18.30;72.50
22108;DHT22;11220;48.812;9.128;2023-03-19T06:54:38;17.90;72.10
22108;DHT22;11220;48.812;9.128;2023-03-19T06:57:04;17.90;72.10
22108;DHT22;11220;48.812;9.128;2023-03-19T06:59:29;17.90;72.10
22108;DHT22;11220;48.812;9.128;2023-03-19T07:01:55;18.40;72.50
22108;DHT22;11220;48.812;9.128;2023-03-19T07:04:21;17.90;72.00
22108;DHT22;11220;48.812;9.128;2023-03-19T07:06:46;18.20;72.20
22108;DHT22;11220;48.812;9.128;2023-03-19T07:09:12;18.00;72.10
22108;DHT22;11220;48.812;9.128;2023-03-19T07:11:37;18.50;72.40
22108;DHT22;11220;48.812;9.128;2023-03-19T07:14:03;18.00;72.10
22108;DHT22;11220;48.812;9.128;2023-03-19T07:16:29;18.80;72.60
22108;DHT22;11220;48.812;9.128;2023-03-19T07:18:54;18.00;72.10
22108;DHT22;11220;48.812;9.128;2023-03-19T07:21:21;18.00;72.10
22108;DHT22;11220;48.812;9.128;2023-03-19T07:23:47;18.00;72.10
22108;DHT22;11220;48.812;9.128;2023-03-19T07:26:12;18.30;72.30
22108;DHT22;11220;48.812;9.128;2023-03-19T07:28:38;18.10;72.10
22108;DHT22;11220;48.812;9.128;2023-03-19T07:31:04;18.00;72.10
22108;DHT22;11220;48.812;9.128;2023-03-19T07:33:30;18.00;72.10
22108;DHT22;11220;48.812;9.128;2023-03-19T07:35:55;18.30;72.30
22108;DHT22;11220;48.812;9.128;2023-03-19T07:38:21;18.00;72.10
22108;DHT22;11220;48.812;9.128;2023-03-19T07:40:46;18.10;72.10
22108;DHT22;11220;48.812;9.128;2023-03-19T07:43:12;18.70;72.50
22108;DHT22;11220;48.812;9.128;2023-03-19T07:45:37;18.10;72.10
22108;DHT22;11220;48.812;9.128;2023-03-19T07:48:03;18.00;72.00
22108;DHT22;11220;48.812;9.128;2023-03-19T07:50:29;18.10;72.10
22108;DHT22;11220;48.812;9.128;2023-03-19T07:52:56;18.50;72.30
22108;DHT22;11220;48.812;9.128;2023-03-19T07:55:22;18.10;72.10
22108;DHT22;11220;48.812;9.128;2023-03-19T07:57:48;18.10;72.00
22108;DHT22;11220;48.812;9.128;2023-03-19T08:00:14;18.90;72.60
22108;DHT22;11220;48.812;9.128;2023-03-19T08:02:40;18.10;72.10
22108;DHT22;11220;48.812;9.128;2023-03-19T08:05:07;19.10;72.70
22108;DHT22;11220;48.812;9.128;2023-03-19T08:07:34;18.10;72.00
22108;DHT22;11220;48.812;9.128;2023-03-19T08:10:00;18.10;72.00
22108;DHT22;11220;48.812;9.128;2023-03-19T08:12:26;18.10;72.00
22108;DHT22;11220;48.812;9.128;2023-03-19T08:14:51;18.10;72.00
22108;DHT22;11220;48.812;9.128;2023-03-19T08:17:17;18.10;72.00
22108;DHT22;11220;48.812;9.128;2023-03-19T08:19:42;18.10;72.00
22108;DHT22;11220;48.812;9.128;2023-03-19T08:22:09;18.10;72.00
22108;DHT22;11220;48.812;9.128;2023-03-19T08:24:34;18.20;72.00
22108;DHT22;11220;48.812;9.128;2023-03-19T08:27:00;18.40;72.20
22108;DHT22;11220;48.812;9.128;2023-03-19T08:29:26;18.10;72.00
22108;DHT22;11220;48.812;9.128;2023-03-19T08:31:53;18.60;72.30
22108;DHT22;11220;48.812;9.128;2023-03-19T08:34:19;18.20;72.00
22108;DHT22;11220;48.812;9.128;2023-03-19T08:36:45;18.20;72.00
22108;DHT22;11220;48.812;9.128;2023-03-19T08:39:11;18.20;72.10
22108;DHT22;11220;48.812;9.128;2023-03-19T08:41:36;18.20;72.00
22108;DHT22;11220;48.812;9.128;2023-03-19T08:44:02;18.20;72.10
22108;DHT22;11220;48.812;9.128;2023-03-19T08:46:28;18.20;72.00
22108;DHT22;11220;48.812;9.128;2023-03-19T08:48:54;18.20;72.00
22108;DHT22;11220;48.812;9.128;2023-03-19T08:51:19;18.20;72.00
22108;DHT22;11220;48.812;9.128;2023-03-19T08:53:45;18.20;72.00
22108;DHT22;11220;48.812;9.128;2023-03-19T08:56:11;18.20;72.00
22108;DHT22;11220;48.812;9.128;2023-03-19T08:58:36;18.20;72.00
22108;DHT22;11220;48.812;9.128;2023-03-19T09:01:10;19.20;72.70
22108;DHT22;11220;48.812;9.128;2023-03-19T09:03:38;18.30;72.20
22108;DHT22;11220;48.812;9.128;2023-03-19T09:06:05;18.30;72.10
22108;DHT22;11220;48.812;9.128;2023-03-19T09:08:32;18.30;72.10
22108;DHT22;11220;48.812;9.128;2023-03-19T09:10:59;18.30;72.20
22108;DHT22;11220;48.812;9.128;2023-03-19T09:13:24;18.30;72.20
22108;DHT22;11220;48.812;9.128;2023-03-19T09:15:51;18.30;72.20
22108;DHT22;11220;48.812;9.128;2023-03-19T09:18:17;18.30;72.20
22108;DHT22;11220;48.812;9.128;2023-03-19T09:20:45;18.30;72.20
22108;DHT22;11220;48.812;9.128;2023-03-19T09:23:11;18.30;72.20
22108;DHT22;11220;48.812;9.128;2023-03-19T09:25:37;18.30;72.30
22108;DHT22;11220;48.812;9.128;2023-03-19T09:28:02;18.40;72.30
22108;DHT22;11220;48.812;9.128;2023-03-19T09:30:28;18.40;72.40
22108;DHT22;11220;48.812;9.128;2023-03-19T09:32:54;18.40;72.50
22108;DHT22;11220;48.812;9.128;2023-03-19T09:35:19;18.40;72.50
22108;DHT22;11220;48.812;9.128;2023-03-19T09:37:45;18.40;72.60
22108;DHT22;11220;48.812;9.128;2023-03-19T09:40:38;19.20;73.10
22108;DHT22;11220;48.812;9.128;2023-03-19T09:45:44;18.40;72.80
22108;DHT22;11220;48.812;9.128;2023-03-19T09:48:17;18.50;72.90
22108;DHT22;11220;48.812;9.128;2023-03-19T09:50:45;18.40;72.90
22108;DHT22;11220;48.812;9.128;2023-03-19T09:55:42;18.60;73.10
22108;DHT22;11220;48.812;9.128;2023-03-19T09:58:16;18.70;73.10
22108;DHT22;11220;48.812;9.128;2023-03-19T10:00:42;18.50;73.00
22108;DHT22;11220;48.812;9.128;2023-03-19T10:03:28;18.50;73.00
22108;DHT22;11220;48.812;9.128;2023-03-19T10:16:44;18.60;73.20
22108;DHT22;11220;48.812;9.128;2023-03-19T10:19:14;18.60;73.20
22108;DHT22;11220;48.812;9.128;2023-03-19T10:22:11;18.60;73.10
22108;DHT22;11220;48.812;9.128;2023-03-19T10:24:43;18.60;73.10
22108;DHT22;11220;48.812;9.128;2023-03-19T10:27:14;18.60;73.10
22108;DHT22;11220;48.812;9.128;2023-03-19T10:29:41;18.60;74.00
22108;DHT22;11220;48.812;9.128;2023-03-19T10:32:17;18.60;73.10
22108;DHT22;11220;48.812;9.128;2023-03-19T10:34:51;18.70;73.20
22108;DHT22;11220;48.812;9.128;2023-03-19T10:37:21;18.70;73.20
22108;DHT22;11220;48.812;9.128;2023-03-19T10:39:49;18.70;73.30
22108;DHT22;11220;48.812;9.128;2023-03-19T10:42:34;18.70;73.30
22108;DHT22;11220;48.812;9.128;2023-03-19T10:47:42;18.80;73.50
22108;DHT22;11220;48.812;9.128;2023-03-19T10:50:18;18.80;73.50
22108;DHT22;11220;48.812;9.128;2023-03-19T10:52:45;18.80;73.60
22108;DHT22;11220;48.812;9.128;2023-03-19T10:55:22;18.80;73.60
22108;DHT22;11220;48.812;9.128;2023-03-19T10:57:49;19.10;73.80
22108;DHT22;11220;48.812;9.128;2023-03-19T11:00:22;18.80;73.60
22108;DHT22;11220;48.812;9.128;2023-03-19T11:02:51;18.90;73.70
22108;DHT22;11220;48.812;9.128;2023-03-19T11:05:22;18.90;73.70
22108;DHT22;11220;48.812;9.128;2023-03-19T11:07:49;18.80;73.70
22108;DHT22;11220;48.812;9.128;2023-03-19T11:10:16;18.90;73.80
22108;DHT22;11220;48.812;9.128;2023-03-19T11:12:47;18.90;73.90
22108;DHT22;11220;48.812;9.128;2023-03-19T11:15:37;19.20;74.30
22108;DHT22;11220;48.812;9.128;2023-03-19T11:20:56;18.90;74.10
22108;DHT22;11220;48.812;9.128;2023-03-19T11:23:26;18.90;75.00
22108;DHT22;11220;48.812;9.128;2023-03-19T11:25:53;19.00;74.10
22108;DHT22;11220;48.812;9.128;2023-03-19T11:28:24;19.50;74.40
22108;DHT22;11220;48.812;9.128;2023-03-19T11:39:20;19.10;74.10
22108;DHT22;11220;48.812;9.128;2023-03-19T11:47:34;19.20;74.00
22108;DHT22;11220;48.812;9.128;2023-03-19T11:57:54;19.30;73.90
22108;DHT22;11220;48.812;9.128;2023-03-19T12:03:35;19.30;73.80
22108;DHT22;11220;48.812;9.128;2023-03-19T12:06:32;19.20;73.80
22108;DHT22;11220;48.812;9.128;2023-03-19T12:12:32;19.30;73.90
22108;DHT22;11220;48.812;9.128;2023-03-19T12:26:23;19.30;75.10
22108;DHT22;11220;48.812;9.128;2023-03-19T12:31:59;19.40;75.40
22108;DHT22;11220;48.812;9.128;2023-03-19T12:40:42;19.30;68.80
22108;DHT22;11220;48.812;9.128;2023-03-19T12:42:42;19.10;65.60
22108;DHT22;11220;48.812;9.128;2023-03-19T12:47:45;18.80;65.00
22108;DHT22;11220;48.812;9.128;2023-03-19T12:50:15;18.80;66.20
22108;DHT22;11220;48.812;9.128;2023-03-19T12:52:50;19.30;67.60
22108;DHT22;11220;48.812;9.128;2023-03-19T12:55:42;18.70;68.00
22108;DHT22;11220;48.812;9.128;2023-03-19T12:58:45;18.70;68.70
22108;DHT22;11220;48.812;9.128;2023-03-19T13:01:19;18.80;69.10
22108;DHT22;11220;48.812;9.128;2023-03-19T13:04:10;18.80;69.40
22108;DHT22;11220;48.812;9.128;2023-03-19T13:06:37;18.90;70.60
22108;DHT22;11220;48.812;9.128;2023-03-19T13:09:31;18.90;69.90
22108;DHT22;11220;48.812;9.128;2023-03-19T13:12:09;19.00;70.10
22108;DHT22;11220;48.812;9.128;2023-03-19T13:14:56;18.90;71.10
22108;DHT22;11220;48.812;9.128;2023-03-19T13:20:30;18.90;70.60
22108;DHT22;11220;48.812;9.128;2023-03-19T13:23:03;18.90;70.80
22108;DHT22;11220;48.812;9.128;2023-03-19T13:25:37;18.90;71.00
22108;DHT22;11220;48.812;9.128;2023-03-19T13:28:09;18.90;71.20
22108;DHT22;11220;48.812;9.128;2023-03-19T13:30:35;18.90;71.40
22108;DHT22;11220;48.812;9.128;2023-03-19T13:33:15;19.00;71.80
22108;DHT22;11220;48.812;9.128;2023-03-19T13:35:43;19.00;71.80
22108;DHT22;11220;48.812;9.128;2023-03-19T13:38:20;19.90;72.60
22108;DHT22;11220;48.812;9.128;2023-03-19T13:40:49;19.10;72.30
22108;DHT22;11220;48.812;9.128;2023-03-19T13:59:35;19.10;73.60
22108;DHT22;11220;48.812;9.128;2023-03-19T14:05:02;19.10;73.80
22108;DHT22;11220;48.812;9.128;2023-03-19T14:07:36;19.10;73.90
22108;DHT22;11220;48.812;9.128;2023-03-19T14:10:06;19.10;74.00
22108;DHT22;11220;48.812;9.128;2023-03-19T14:12:38;19.10;74.10
22108;DHT22;11220;48.812;9.128;2023-03-19T14:17:36;19.20;74.40
22108;DHT22;11220;48.812;9.128;2023-03-19T14:22:40;19.20;74.70
22108;DHT22;11220;48.812;9.128;2023-03-19T14:25:20;20.50;75.70
22108;DHT22;11220;48.812;9.128;2023-03-19T14:27:58;19.40;75.20
22108;DHT22;11220;48.812;9.128;2023-03-19T14:30:38;19.20;75.30
22108;DHT22;11220;48.812;9.128;2023-03-19T14:33:17;19.30;75.70
22108;DHT22;11220;48.812;9.128;2023-03-19T14:35:45;19.30;75.80
22108;DHT22;11220;48.812;9.128;2023-03-19T14:38:48;19.30;76.00
22108;DHT22;11220;48.812;9.128;2023-03-19T14:41:19;19.30;76.20
22108;DHT22;11220;48.812;9.128;2023-03-19T14:44:15;19.30;76.30
22108;DHT22;11220;48.812;9.128;2023-03-19T14:52:22;19.30;76.40
22108;DHT22;11220;48.812;9.128;2023-03-19T14:54:57;19.30;76.40
22108;DHT22;11220;48.812;9.128;2023-03-19T14:57:28;19.30;76.40
22108;DHT22;11220;48.812;9.128;2023-03-19T14:59:55;19.30;76.40
22108;DHT22;11220;48.812;9.128;2023-03-19T15:02:31;20.20;76.90
22108;DHT22;11220;48.812;9.128;2023-03-19T15:04:58;19.30;76.20
22108;DHT22;11220;48.812;9.128;2023-03-19T15:07:30;19.30;76.20
22108;DHT22;11220;48.812;9.128;2023-03-19T15:09:59;19.40;76.20
22108;DHT22;11220;48.812;9.128;2023-03-19T15:12:53;19.30;76.10
22108;DHT22;11220;48.812;9.128;2023-03-19T15:18:03;19.30;76.00
22108;DHT22;11220;48.812;9.128;2023-03-19T15:20:43;19.20;75.90
22108;DHT22;11220;48.812;9.128;2023-03-19T15:23:11;19.20;75.90
22108;DHT22;11220;48.812;9.128;2023-03-19T15:25:49;20.20;76.50
22108;DHT22;11220;48.812;9.128;2023-03-19T15:28:16;19.20;75.90
22108;DHT22;11220;48.812;9.128;2023-03-19T15:30:43;19.20;75.90
22108;DHT22;11220;48.812;9.128;2023-03-19T15:33:23;20.10;76.40
22108;DHT22;11220;48.812;9.128;2023-03-19T15:35:58;19.20;75.80
22108;DHT22;11220;48.812;9.128;2023-03-19T15:38:30;19.20;75.80
22108;DHT22;11220;48.812;9.128;2023-03-19T15:41:00;19.20;75.80
22108;DHT22;11220;48.812;9.128;2023-03-19T15:43:26;19.20;75.70
22108;DHT22;11220;48.812;9.128;2023-03-19T15:45:53;19.20;75.70
22108;DHT22;11220;48.812;9.128;2023-03-19T15:49:02;19.20;75.60
22108;DHT22;11220;48.812;9.128;2023-03-19T15:51:30;19.10;75.50
22108;DHT22;11220;48.812;9.128;2023-03-19T15:53:57;19.10;75.50
22108;DHT22;11220;48.812;9.128;2023-03-19T15:56:23;19.10;75.40
22108;DHT22;11220;48.812;9.128;2023-03-19T15:58:51;19.90;75.90
22108;DHT22;11220;48.812;9.128;2023-03-19T16:01:19;19.10;75.40
22108;DHT22;11220;48.812;9.128;2023-03-19T16:03:54;19.70;75.70
22108;DHT22;11220;48.812;9.128;2023-03-19T16:06:29;19.00;75.30
22108;DHT22;11220;48.812;9.128;2023-03-19T16:09:11;19.10;75.30
22108;DHT22;11220;48.812;9.128;2023-03-19T16:11:44;19.00;75.20
22108;DHT22;11220;48.812;9.128;2023-03-19T16:16:40;19.80;75.70
22108;DHT22;11220;48.812;9.128;2023-03-19T16:19:30;19.00;75.20
22108;DHT22;11220;48.812;9.128;2023-03-19T16:21:56;19.00;75.10
22108;DHT22;11220;48.812;9.128;2023-03-19T16:24:29;19.10;75.20
22108;DHT22;11220;48.812;9.128;2023-03-19T16:27:01;19.00;75.10
22108;DHT22;11220;48.812;9.128;2023-03-19T16:29:44;19.50;75.60
22108;DHT22;11220;48.812;9.128;2023-03-19T16:34:42;19.00;75.10
22108;DHT22;11220;48.812;9.128;2023-03-19T16:45:02;18.90;74.90
22108;DHT22;11220;48.812;9.128;2023-03-19T16:47:27;18.90;74.90
22108;DHT22;11220;48.812;9.128;2023-03-19T16:49:53;19.40;75.20
22108;DHT22;11220;48.812;9.128;2023-03-19T16:52:21;18.90;75.00
22108;DHT22;11220;48.812;9.128;2023-03-19T16:54:47;18.90;75.00
22108;DHT22;11220;48.812;9.128;2023-03-19T16:57:14;18.80;74.90
22108;DHT22;11220;48.812;9.128;2023-03-19T16:59:41;18.90;74.90
22108;DHT22;11220;48.812;9.128;2023-03-19T17:02:14;18.90;75.00
22108;DHT22;11220;48.812;9.128;2023-03-19T17:04:41;18.90;75.10
22108;DHT22;11220;48.812;9.128;2023-03-19T17:07:07;18.90;75.10
22108;DHT22;11220;48.812;9.128;2023-03-19T17:09:33;18.90;75.10
22108;DHT22;11220;48.812;9.128;2023-03-19T17:11:59;18.80;75.10
22108;DHT22;11220;48.812;9.128;2023-03-19T17:14:26;18.90;75.10
22108;DHT22;11220;48.812;9.128;2023-03-19T17:16:52;18.80;75.10
22108;DHT22;11220;48.812;9.128;2023-03-19T17:19:22;18.80;75.20
22108;DHT22;11220;48.812;9.128;2023-03-19T17:21:49;18.80;75.20
22108;DHT22;11220;48.812;9.128;2023-03-19T17:24:23;19.80;75.90
22108;DHT22;11220;48.812;9.128;2023-03-19T17:26:49;18.80;75.20
22108;DHT22;11220;48.812;9.128;2023-03-19T17:29:15;18.80;75.30
22108;DHT22;11220;48.812;9.128;2023-03-19T17:31:41;19.70;75.90
22108;DHT22;11220;48.812;9.128;2023-03-19T17:34:13;18.80;76.30
22108;DHT22;11220;48.812;9.128;2023-03-19T17:36:41;18.80;75.40
22108;DHT22;11220;48.812;9.128;2023-03-19T17:39:09;18.70;75.40
22108;DHT22;11220;48.812;9.128;2023-03-19T17:41:35;18.70;75.30
22108;DHT22;11220;48.812;9.128;2023-03-19T17:44:01;18.70;75.30
22108;DHT22;11220;48.812;9.128;2023-03-19T17:46:27;18.70;75.40